Time;durP1;ratioP1;P1;durP2;ratioP2;P2;SDS_P1;SDS_P2;PMS_P1;PMS_P2;Temp;Humidity;BMP_temperature;BMP_pressure;BME280_temperature;BME280_humidity;BME280_pressure;Samples;Min_cycle;Max_cycle;Signal;HPM_P1;HPM_P2
2022/07/17 00:00:42;;;;;;;2.40;2.20;;;26.30;51.80;;;;;;6122663;23;20420;-82
2022/07/17 00:03:10;;;;;;;2.30;2.10;;;26.30;51.60;;;;;;6126897;23;20742;-83
2022/07/17 00:05:38;;;;;;;2.40;2.20;;;26.30;51.60;;;;;;6124247;23;20381;-82
2022/07/17 00:08:08;;;;;;;2.72;2.53;;;26.30;51.50;;;;;;6126378;23;20377;-90
2022/07/17 00:10:37;;;;;;;2.60;2.40;;;26.30;51.30;;;;;;6125020;23;20429;-82
2022/07/17 00:13:04;;;;;;;2.28;2.10;;;26.30;51.30;;;;;;6125852;23;20372;-89
2022/07/17 00:15:32;;;;;;;2.80;2.60;;;26.30;51.40;;;;;;6125250;23;20845;-81
2022/07/17 00:17:59;;;;;;;2.88;2.50;;;26.30;51.20;;;;;;6126609;23;20740;-81
2022/07/17 00:20:27;;;;;;;2.80;2.45;;;26.30;51.10;;;;;;6150905;23;20421;-84
2022/07/17 00:22:55;;;;;;;2.38;2.10;;;26.30;51.00;;;;;;6123822;23;20376;-81
2022/07/17 00:25:22;;;;;;;2.40;2.20;;;26.30;50.70;;;;;;6126503;23;20406;-82
2022/07/17 00:27:49;;;;;;;2.75;2.53;;;26.30;50.90;;;;;;6123274;23;20382;-81
2022/07/17 00:30:17;;;;;;;2.83;2.60;;;26.30;50.80;;;;;;6120869;23;20374;-87
2022/07/17 00:32:44;;;;;;;2.50;2.30;;;26.40;50.60;;;;;;6122703;23;20385;-88
2022/07/17 00:35:12;;;;;;;3.80;2.55;;;26.40;50.60;;;;;;6149556;23;20374;-83
2022/07/17 00:37:47;;;;;;;2.53;2.33;;;26.30;50.50;;;;;;6148345;23;20401;-83
2022/07/17 00:40:21;;;;;;;2.97;2.40;;;26.30;50.50;;;;;;6127227;23;20374;-83
2022/07/17 00:42:48;;;;;;;2.25;2.05;;;26.30;50.20;;;;;;6126496;23;20436;-82
2022/07/17 00:45:15;;;;;;;2.42;2.22;;;26.30;50.20;;;;;;6127163;23;20433;-81
2022/07/17 00:47:55;;;;;;;2.90;2.60;;;26.30;50.20;;;;;;6127164;23;20446;-82
2022/07/17 00:50:24;;;;;;;2.63;2.42;;;26.30;50.10;;;;;;6124779;23;20441;-81
2022/07/17 00:52:51;;;;;;;2.65;2.45;;;26.40;50.10;;;;;;6126720;23;20455;-82
2022/07/17 00:55:18;;;;;;;2.47;2.28;;;26.30;50.20;;;;;;6127373;23;20382;-82
2022/07/17 00:58:07;;;;;;;2.53;2.33;;;26.30;50.10;;;;;;6130690;23;20504;-82
2022/07/17 01:00:34;;;;;;;2.63;2.43;;;26.30;50.30;;;;;;6127064;23;20751;-88
2022/07/17 01:03:01;;;;;;;2.53;2.33;;;26.30;50.30;;;;;;6152107;23;20815;-88
2022/07/17 01:05:28;;;;;;;3.00;2.67;;;26.30;50.20;;;;;;6126764;23;20406;-81
2022/07/17 01:07:55;;;;;;;2.60;2.25;;;26.30;50.30;;;;;;6126656;23;20421;-82
2022/07/17 01:10:23;;;;;;;2.20;2.00;;;26.30;50.30;;;;;;6127224;23;20378;-88
2022/07/17 01:12:49;;;;;;;3.17;2.88;;;26.30;50.30;;;;;;6126083;23;20758;-88
2022/07/17 01:15:16;;;;;;;2.77;2.57;;;26.30;50.10;;;;;;6127007;23;20648;-82
2022/07/17 01:17:44;;;;;;;2.60;2.40;;;26.30;50.30;;;;;;6126280;23;20382;-88
2022/07/17 01:20:12;;;;;;;2.55;2.35;;;26.20;50.10;;;;;;6127183;23;20448;-81
2022/07/17 01:22:44;;;;;;;3.67;2.65;;;26.20;50.10;;;;;;6126738;23;20370;-81
2022/07/17 01:25:12;;;;;;;3.22;2.42;;;26.20;50.10;;;;;;6114241;23;20687;-81
2022/07/17 01:27:40;;;;;;;2.15;2.05;;;26.20;50.10;;;;;;6126771;23;20380;-87
2022/07/17 01:30:09;;;;;;;2.70;2.50;;;26.20;50.00;;;;;;6126720;23;20458;-82
2022/07/17 01:32:39;;;;;;;2.58;2.35;;;26.20;49.90;;;;;;6126994;23;20394;-81
2022/07/17 01:35:08;;;;;;;2.45;2.25;;;26.20;49.80;;;;;;6125786;23;20386;-89
2022/07/17 01:37:40;;;;;;;2.63;2.42;;;26.20;49.80;;;;;;6127788;23;20378;-82
2022/07/17 01:40:09;;;;;;;2.58;2.30;;;26.30;49.70;;;;;;6126108;23;20937;-87
2022/07/17 01:42:37;;;;;;;3.20;2.63;;;26.20;49.60;;;;;;6127355;23;20857;-87
2022/07/17 01:45:04;;;;;;;2.30;2.20;;;26.30;49.70;;;;;;6126193;23;20404;-87
2022/07/17 01:47:31;;;;;;;2.70;2.50;;;26.30;49.20;;;;;;6127139;23;20373;-81
2022/07/17 01:49:59;;;;;;;3.50;2.30;;;26.30;49.10;;;;;;6126184;23;20436;-88
2022/07/17 01:52:26;;;;;;;2.70;2.50;;;26.30;49.30;;;;;;6152762;23;20369;-82
2022/07/17 01:54:54;;;;;;;2.20;2.10;;;26.30;49.60;;;;;;6126105;23;20370;-82
2022/07/17 01:57:21;;;;;;;2.78;2.40;;;26.30;49.60;;;;;;6127098;23;20862;-87
2022/07/17 01:59:48;;;;;;;2.58;2.38;;;26.20;49.60;;;;;;6125776;23;20707;-81
2022/07/17 02:02:15;;;;;;;2.65;2.45;;;26.20;49.40;;;;;;6126959;23;20373;-81
2022/07/17 02:04:43;;;;;;;2.65;2.55;;;26.20;49.50;;;;;;6127028;23;20729;-82
2022/07/17 02:07:11;;;;;;;2.55;2.35;;;26.20;49.60;;;;;;6126458;23;20377;-89
2022/07/17 02:09:38;;;;;;;3.10;2.37;;;26.20;49.20;;;;;;6152356;23;20862;-83
2022/07/17 02:12:08;;;;;;;3.28;2.00;;;26.20;49.00;;;;;;6125862;23;20386;-87
2022/07/17 02:14:35;;;;;;;3.13;2.30;;;26.20;49.30;;;;;;6101818;23;20440;-87
2022/07/17 02:17:03;;;;;;;2.60;2.40;;;26.10;49.30;;;;;;6125921;23;20386;-88
2022/07/17 02:19:30;;;;;;;2.87;2.40;;;26.10;49.30;;;;;;6127270;23;20758;-89
2022/07/17 02:21:56;;;;;;;2.30;2.05;;;26.10;49.40;;;;;;6126026;23;20719;-83
2022/07/17 02:24:23;;;;;;;2.35;2.15;;;26.00;49.50;;;;;;6127972;23;20374;-83
2022/07/17 02:26:50;;;;;;;2.60;2.30;;;26.00;49.20;;;;;;6127609;23;20382;-80
2022/07/17 02:29:17;;;;;;;2.50;2.37;;;26.00;49.40;;;;;;6128089;23;20994;-81
2022/07/17 02:31:44;;;;;;;2.33;2.05;;;25.90;49.40;;;;;;6128755;23;20370;-81
2022/07/17 02:34:11;;;;;;;2.67;2.47;;;25.90;49.60;;;;;;6127520;23;20366;-86
2022/07/17 02:36:38;;;;;;;2.45;2.25;;;25.90;49.70;;;;;;6154097;23;20428;-82
2022/07/17 02:39:05;;;;;;;3.80;2.60;;;25.90;49.40;;;;;;6127670;23;20386;-82
2022/07/17 02:41:33;;;;;;;2.47;2.20;;;25.90;49.40;;;;;;6128000;23;20374;-86
2022/07/17 02:44:00;;;;;;;2.40;2.20;;;25.90;49.50;;;;;;6127695;23;20362;-82
2022/07/17 02:46:27;;;;;;;2.33;2.13;;;25.90;49.40;;;;;;6128645;23;20375;-81
2022/07/17 02:48:54;;;;;;;2.60;2.30;;;25.80;49.50;;;;;;6128073;23;20401;-82
2022/07/17 02:51:21;;;;;;;2.35;2.10;;;25.80;49.70;;;;;;6127880;23;20370;-81
2022/07/17 02:53:48;;;;;;;2.55;2.00;;;25.80;49.80;;;;;;6128062;23;20890;-81
2022/07/17 02:56:15;;;;;;;2.05;1.77;;;25.70;49.90;;;;;;6127666;23;20370;-87
2022/07/17 02:58:42;;;;;;;2.88;2.47;;;25.70;50.00;;;;;;6128354;23;20366;-81
2022/07/17 03:01:09;;;;;;;2.25;2.05;;;25.70;50.30;;;;;;6153283;23;20425;-83
2022/07/17 03:03:36;;;;;;;2.58;2.38;;;25.60;50.30;;;;;;6128395;23;20433;-88
2022/07/17 03:06:03;;;;;;;2.10;1.90;;;25.60;50.30;;;;;;6127576;23;20370;-82
2022/07/17 03:08:30;;;;;;;2.45;2.25;;;25.50;50.20;;;;;;6153707;23;20478;-87
2022/07/17 03:10:57;;;;;;;2.20;2.10;;;25.50;50.20;;;;;;6127030;23;20378;-82
2022/07/17 03:13:23;;;;;;;2.55;2.20;;;25.40;50.30;;;;;;6128191;23;20373;-81
2022/07/17 03:15:51;;;;;;;2.25;2.13;;;25.40;50.30;;;;;;6128165;23;20374;-83
2022/07/17 03:18:18;;;;;;;2.20;2.00;;;25.40;50.40;;;;;;6127489;23;20683;-87
2022/07/17 03:20:45;;;;;;;2.90;2.42;;;25.40;50.50;;;;;;6128139;23;20433;-82
2022/07/17 03:23:12;;;;;;;2.63;2.42;;;25.40;50.40;;;;;;6127253;23;20366;-82
2022/07/17 03:25:38;;;;;;;2.85;2.38;;;25.40;50.20;;;;;;6153905;23;20366;-82
2022/07/17 03:28:06;;;;;;;2.75;2.47;;;25.30;50.30;;;;;;6127854;23;20366;-83
2022/07/17 03:30:33;;;;;;;2.63;2.42;;;25.30;50.10;;;;;;6127706;23;20386;-81
2022/07/17 03:33:00;;;;;;;2.30;2.10;;;25.40;50.10;;;;;;6127214;23;20432;-82
2022/07/17 03:35:27;;;;;;;2.30;2.17;;;25.30;50.20;;;;;;6153110;23;20374;-88
2022/07/17 03:37:54;;;;;;;2.17;2.08;;;25.30;50.20;;;;;;6127897;23;20378;-84
2022/07/17 03:40:21;;;;;;;2.50;2.30;;;25.30;50.30;;;;;;6152374;23;20374;-84
2022/07/17 03:42:48;;;;;;;2.33;2.23;;;25.30;50.00;;;;;;6127803;23;20385;-88
2022/07/17 03:45:14;;;;;;;2.85;2.17;;;25.30;49.80;;;;;;6127065;23;20378;-84
2022/07/17 03:47:41;;;;;;;2.10;2.00;;;25.30;49.90;;;;;;6128017;23;20370;-84
2022/07/17 03:50:08;;;;;;;2.78;2.33;;;25.20;50.00;;;;;;6126616;23;20378;-82
2022/07/17 03:52:35;;;;;;;2.30;2.10;;;25.30;50.30;;;;;;6128074;23;20838;-82
2022/07/17 03:55:02;;;;;;;2.22;2.03;;;25.20;50.30;;;;;;6126620;23;20385;-82
2022/07/17 03:57:29;;;;;;;3.58;2.70;;;25.20;50.40;;;;;;6127811;23;20444;-84
2022/07/17 03:59:56;;;;;;;2.28;2.17;;;25.10;50.40;;;;;;6127551;23;20839;-83
2022/07/17 04:02:23;;;;;;;2.58;2.38;;;25.20;50.40;;;;;;6126836;23;20370;-83
2022/07/17 04:04:50;;;;;;;2.60;2.40;;;25.10;50.50;;;;;;6127398;23;20429;-82
2022/07/17 04:07:30;;;;;;;2.65;1.95;;;25.10;50.60;;;;;;6126738;23;20374;-82
2022/07/17 04:09:58;;;;;;;2.40;2.13;;;25.10;50.70;;;;;;6127699;23;20767;-88
2022/07/17 04:12:27;;;;;;;2.63;2.42;;;25.10;50.90;;;;;;6126956;23;20831;-82
2022/07/17 04:14:54;;;;;;;2.53;2.33;;;25.00;51.10;;;;;;6127590;23;20377;-82
2022/07/17 04:17:22;;;;;;;2.15;2.00;;;25.00;51.00;;;;;;6126712;23;20839;-84
2022/07/17 04:19:49;;;;;;;2.75;2.50;;;25.00;50.80;;;;;;6129188;23;20025;-81
2022/07/17 04:22:16;;;;;;;2.33;2.15;;;24.90;50.80;;;;;;6126548;23;20487;-86
2022/07/17 04:24:43;;;;;;;2.50;2.30;;;24.90;50.80;;;;;;6127561;23;20906;-87
2022/07/17 04:27:12;;;;;;;3.53;1.90;;;24.90;51.00;;;;;;6126667;23;20842;-82
2022/07/17 04:29:39;;;;;;;2.17;2.03;;;24.90;51.30;;;;;;6127630;23;20396;-87
2022/07/17 04:32:06;;;;;;;2.40;2.20;;;24.90;51.90;;;;;;6151840;23;20366;-83
2022/07/17 04:34:34;;;;;;;2.22;2.03;;;24.90;51.80;;;;;;6127848;23;20374;-88
2022/07/17 04:37:02;;;;;;;2.15;1.98;;;24.80;52.00;;;;;;6127476;23;20370;-86
2022/07/17 04:39:30;;;;;;;1.95;1.85;;;24.80;52.10;;;;;;6127154;23;20374;-88
2022/07/17 04:41:57;;;;;;;3.10;2.15;;;24.60;52.10;;;;;;6127077;23;20382;-83
2022/07/17 04:44:24;;;;;;;2.63;2.05;;;24.60;52.50;;;;;;6126570;23;20827;-82
2022/07/17 04:46:51;;;;;;;2.27;2.03;;;24.60;52.90;;;;;;6126535;23;20834;-87
2022/07/17 04:49:18;;;;;;;2.25;2.05;;;24.50;53.20;;;;;;6126232;23;20433;-82
2022/07/17 04:51:45;;;;;;;2.40;2.30;;;24.50;53.20;;;;;;6126385;23;20401;-86
2022/07/17 04:54:11;;;;;;;2.45;2.25;;;24.50;52.60;;;;;;6126398;23;20373;-86
2022/07/17 04:56:38;;;;;;;3.95;2.35;;;24.60;52.40;;;;;;6126792;23;20382;-83
2022/07/17 04:59:05;;;;;;;2.40;2.20;;;24.60;52.50;;;;;;6127071;23;20370;-86
2022/07/17 05:01:33;;;;;;;2.45;2.13;;;24.60;52.30;;;;;;6125521;23;20374;-83
2022/07/17 05:04:02;;;;;;;2.25;2.05;;;24.70;52.00;;;;;;6127131;23;20735;-85
2022/07/17 05:06:29;;;;;;;2.08;1.98;;;24.70;51.90;;;;;;6126679;23;20382;-88
2022/07/17 05:08:56;;;;;;;2.67;2.47;;;24.80;51.90;;;;;;6126768;23;20378;-85
2022/07/17 05:11:22;;;;;;;2.10;2.00;;;24.80;51.10;;;;;;6125777;23;20746;-81
2022/07/17 05:13:49;;;;;;;1.65;1.52;;;24.90;51.20;;;;;;6126756;23;20409;-90
2022/07/17 05:16:16;;;;;;;2.50;1.77;;;24.90;51.20;;;;;;6151745;23;20428;-85
2022/07/17 05:18:43;;;;;;;2.22;2.00;;;25.00;51.10;;;;;;6126795;23;20370;-83
2022/07/17 05:21:10;;;;;;;2.10;2.00;;;25.10;50.60;;;;;;6151368;23;20385;-81
2022/07/17 05:23:37;;;;;;;2.72;1.70;;;25.10;50.30;;;;;;6127130;23;20370;-83
2022/07/17 05:26:04;;;;;;;2.30;2.00;;;25.10;50.20;;;;;;6126127;23;20437;-81
2022/07/17 05:28:31;;;;;;;3.33;3.03;;;25.20;50.30;;;;;;6153798;23;20120;-87
2022/07/17 05:31:04;;;;;;;2.20;2.05;;;25.20;50.00;;;;;;6128184;23;20385;-83
2022/07/17 05:33:32;;;;;;;4.78;2.25;;;25.30;50.00;;;;;;6126373;23;20838;-81
2022/07/17 05:35:59;;;;;;;2.20;2.10;;;25.30;49.40;;;;;;6127208;23;20436;-83
2022/07/17 05:38:25;;;;;;;3.80;2.45;;;25.30;49.50;;;;;;6151608;23;20700;-82
2022/07/17 05:40:52;;;;;;;2.85;2.53;;;25.40;49.30;;;;;;6125536;23;20389;-81
2022/07/17 05:43:19;;;;;;;3.33;2.13;;;25.40;49.30;;;;;;6125390;23;20394;-82
2022/07/17 05:45:46;;;;;;;1.98;1.80;;;25.50;49.10;;;;;;6126698;23;20373;-83
2022/07/17 05:48:13;;;;;;;2.03;1.80;;;25.40;49.00;;;;;;6126042;23;20406;-82
2022/07/17 05:50:40;;;;;;;2.40;2.15;;;25.50;49.20;;;;;;6151661;23;20374;-82
2022/07/17 05:53:07;;;;;;;2.45;2.05;;;25.50;49.80;;;;;;6126113;23;20428;-87
2022/07/17 05:55:34;;;;;;;1.83;1.73;;;25.50;49.60;;;;;;6124679;23;20370;-82
2022/07/17 05:58:01;;;;;;;3.60;2.42;;;25.60;49.10;;;;;;6126553;23;20440;-83
2022/07/17 06:00:28;;;;;;;2.20;1.92;;;25.60;49.30;;;;;;6127427;23;20370;-82
2022/07/17 06:02:54;;;;;;;2.30;2.10;;;25.70;49.60;;;;;;6127545;23;20374;-81
2022/07/17 06:05:21;;;;;;;2.10;2.00;;;25.70;49.80;;;;;;6125694;23;20370;-81
2022/07/17 06:07:48;;;;;;;1.75;1.65;;;25.80;49.70;;;;;;6128850;23;20858;-83
2022/07/17 06:10:15;;;;;;;7.68;2.90;;;25.90;49.10;;;;;;6128887;23;20945;-83
2022/07/17 06:12:42;;;;;;;4.38;2.60;;;25.90;48.70;;;;;;6128602;23;20378;-81
2022/07/17 06:15:10;;;;;;;4.13;2.70;;;25.90;49.00;;;;;;6128792;23;20375;-82
2022/07/17 06:17:37;;;;;;;3.25;2.50;;;26.00;48.60;;;;;;6127927;23;20868;-81
2022/07/17 06:20:09;;;;;;;2.30;2.20;;;26.00;49.00;;;;;;6129234;23;20424;-83
2022/07/17 06:22:36;;;;;;;2.63;2.15;;;26.00;48.40;;;;;;6127778;23;20378;-83
2022/07/17 06:25:03;;;;;;;2.58;2.10;;;26.00;49.30;;;;;;6154532;23;20386;-82
2022/07/17 06:27:30;;;;;;;2.47;2.25;;;26.10;49.40;;;;;;6127518;23;20374;-81
2022/07/17 06:29:57;;;;;;;2.17;1.88;;;26.10;49.80;;;;;;6154146;23;20378;-82
2022/07/17 06:32:24;;;;;;;1.70;1.60;;;26.20;49.60;;;;;;6127673;23;20374;-81
2022/07/17 06:34:52;;;;;;;2.22;2.00;;;26.20;49.40;;;;;;6128265;23;20421;-81
2022/07/17 06:37:19;;;;;;;2.13;2.03;;;26.30;49.60;;;;;;6129041;23;20370;-82
2022/07/17 06:39:46;;;;;;;2.00;1.70;;;26.40;50.90;;;;;;6153347;23;20835;-82
2022/07/17 06:42:13;;;;;;;2.20;1.92;;;26.50;50.30;;;;;;6128343;23;20424;-82
2022/07/17 06:44:40;;;;;;;3.10;2.03;;;26.70;50.60;;;;;;6127941;23;20374;-82
2022/07/17 06:47:07;;;;;;;4.15;2.30;;;26.80;50.20;;;;;;6128355;23;20424;-81
2022/07/17 06:49:33;;;;;;;4.47;1.75;;;27.00;50.40;;;;;;6153555;23;20394;-88
2022/07/17 06:52:00;;;;;;;2.47;1.92;;;27.20;48.40;;;;;;6127718;23;20405;-88
2022/07/17 06:54:27;;;;;;;2.20;2.00;;;27.40;46.30;;;;;;6127421;23;20374;-82
2022/07/17 06:56:54;;;;;;;1.70;1.60;;;27.60;47.30;;;;;;6128439;23;20382;-83
2022/07/17 06:59:21;;;;;;;2.20;1.40;;;27.80;45.80;;;;;;6128414;23;20374;-80
2022/07/17 07:01:48;;;;;;;2.73;1.70;;;28.10;45.50;;;;;;6127211;23;20366;-87
2022/07/17 07:04:15;;;;;;;1.27;1.17;;;28.30;45.60;;;;;;6128351;23;20385;-88
2022/07/17 07:06:43;;;;;;;3.95;1.58;;;28.50;44.10;;;;;;6127849;23;20437;-82
2022/07/17 07:09:11;;;;;;;2.17;1.70;;;28.70;43.70;;;;;;6128211;23;20402;-82
2022/07/17 07:11:43;;;;;;;1.63;1.52;;;28.90;44.00;;;;;;6128684;23;20374;-81
2022/07/17 07:14:10;;;;;;;6.15;1.73;;;29.00;43.10;;;;;;6128496;23;20381;-91
2022/07/17 07:16:37;;;;;;;3.00;1.60;;;29.30;42.90;;;;;;6128116;23;20382;-88
2022/07/17 07:19:04;;;;;;;3.03;1.20;;;29.40;42.00;;;;;;6128602;23;20378;-87
2022/07/17 07:21:31;;;;;;;1.60;1.48;;;29.50;43.00;;;;;;6127465;23;20382;-82
2022/07/17 07:23:58;;;;;;;4.87;1.60;;;29.60;41.60;;;;;;6128892;23;20726;-83
2022/07/17 07:26:25;;;;;;;2.40;1.30;;;29.70;41.30;;;;;;6128008;23;20382;-81
2022/07/17 07:28:52;;;;;;;1.83;1.50;;;29.70;41.30;;;;;;6153244;23;20374;-88
2022/07/17 07:31:19;;;;;;;2.40;1.58;;;29.70;41.70;;;;;;6127509;23;20370;-88
2022/07/17 07:33:46;;;;;;;2.65;1.77;;;29.80;42.10;;;;;;6124737;23;20428;-82
2022/07/17 07:36:13;;;;;;;2.65;1.50;;;29.70;42.00;;;;;;6127501;23;20374;-81
2022/07/17 07:38:41;;;;;;;3.55;1.58;;;29.70;42.10;;;;;;6124730;23;20401;-85
2022/07/17 07:41:08;;;;;;;2.17;1.70;;;29.80;41.90;;;;;;6125689;23;20743;-89
2022/07/17 07:43:35;;;;;;;2.13;1.38;;;30.00;42.10;;;;;;6125729;23;20374;-80
2022/07/17 07:46:03;;;;;;;3.05;1.40;;;30.10;40.90;;;;;;6153574;23;20440;-83
2022/07/17 07:48:30;;;;;;;4.25;1.60;;;30.10;40.30;;;;;;6127496;23;20370;-82
2022/07/17 07:50:57;;;;;;;3.25;1.60;;;30.10;41.10;;;;;;6126131;23;20429;-90
2022/07/17 07:53:24;;;;;;;3.20;1.40;;;30.10;41.40;;;;;;6127669;23;20378;-80
2022/07/17 07:55:51;;;;;;;3.30;2.00;;;30.10;41.50;;;;;;6127237;23;20378;-83
2022/07/17 07:58:19;;;;;;;1.80;1.70;;;30.20;41.20;;;;;;6128407;23;20865;-88
2022/07/17 08:00:46;;;;;;;1.60;1.48;;;30.20;42.00;;;;;;6127487;23;20382;-84
2022/07/17 08:03:14;;;;;;;2.70;1.70;;;30.30;41.60;;;;;;6128053;23;20421;-88
2022/07/17 08:05:42;;;;;;;2.20;1.50;;;30.40;42.40;;;;;;6126164;23;20385;-89
2022/07/17 08:08:09;;;;;;;1.67;1.53;;;30.50;41.70;;;;;;6127388;23;20370;-90
2022/07/17 08:10:36;;;;;;;2.53;1.60;;;30.60;41.30;;;;;;6127036;23;20386;-82
2022/07/17 08:13:03;;;;;;;2.00;1.60;;;30.70;40.50;;;;;;6126725;23;20397;-82
2022/07/17 08:15:30;;;;;;;2.63;1.77;;;30.70;40.70;;;;;;6126939;23;20767;-87
2022/07/17 08:17:59;;;;;;;2.50;1.67;;;30.80;40.60;;;;;;6152614;23;20673;-83
2022/07/17 08:20:26;;;;;;;1.95;1.48;;;30.70;40.30;;;;;;6126785;23;20378;-83
2022/07/17 08:22:53;;;;;;;1.65;1.38;;;30.60;40.60;;;;;;6125970;23;20906;-89
2022/07/17 08:25:31;;;;;;;3.10;1.60;;;30.80;40.80;;;;;;6129331;23;20413;-80
2022/07/17 08:27:59;;;;;;;1.58;1.48;;;30.90;39.60;;;;;;6126602;23;20378;-81
2022/07/17 08:30:27;;;;;;;3.90;1.60;;;31.00;39.70;;;;;;6126254;23;20420;-81
2022/07/17 08:32:54;;;;;;;1.63;1.50;;;31.00;38.70;;;;;;6125217;23;20393;-85
2022/07/17 08:35:21;;;;;;;1.90;1.40;;;31.10;39.30;;;;;;6126134;23;20378;-82
2022/07/17 08:37:52;;;;;;;2.63;1.50;;;31.20;39.10;;;;;;6125582;23;20853;-86
2022/07/17 08:40:25;;;;;;;1.85;1.50;;;31.20;39.10;;;;;;6126972;23;20374;-79
2022/07/17 08:42:55;;;;;;;2.40;1.40;;;31.30;39.90;;;;;;6125992;23;20378;-86
2022/07/17 08:45:22;;;;;;;2.25;1.55;;;31.20;38.50;;;;;;6126598;23;20446;-79
2022/07/17 08:47:51;;;;;;;2.53;1.45;;;31.00;38.70;;;;;;6101554;23;20707;-83
2022/07/17 08:50:26;;;;;;;1.60;1.43;;;30.90;39.50;;;;;;6126485;23;20366;-80
2022/07/17 08:52:53;;;;;;;1.40;1.30;;;30.90;40.30;;;;;;6126415;23;20374;-81
2022/07/17 08:55:20;;;;;;;1.58;1.35;;;30.90;39.70;;;;;;6152380;23;20378;-85
2022/07/17 08:57:49;;;;;;;2.40;1.20;;;31.10;40.80;;;;;;6125914;23;20425;-82
2022/07/17 09:00:22;;;;;;;1.88;1.50;;;31.20;40.10;;;;;;6126863;23;20433;-81
2022/07/17 09:02:53;;;;;;;1.90;1.58;;;31.40;40.10;;;;;;6126129;23;20376;-84
2022/07/17 09:05:25;;;;;;;8.60;1.73;;;31.50;39.40;;;;;;6126660;23;20849;-82
2022/07/17 09:07:52;;;;;;;2.00;1.60;;;31.60;40.30;;;;;;6126386;23;20370;-81
2022/07/17 09:10:29;;;;;;;1.80;1.70;;;31.80;39.30;;;;;;6127161;23;20414;-81
2022/07/17 09:12:56;;;;;;;3.45;1.65;;;31.80;38.50;;;;;;6126215;23;20374;-81
2022/07/17 09:15:23;;;;;;;1.93;1.73;;;31.80;39.00;;;;;;6126645;23;20429;-81
2022/07/17 09:17:54;;;;;;;1.90;1.45;;;31.90;38.10;;;;;;6126387;23;20407;-81
2022/07/17 09:20:22;;;;;;;1.80;1.70;;;32.00;38.00;;;;;;6127160;23;20377;-81
2022/07/17 09:23:00;;;;;;;2.20;1.73;;;31.90;37.80;;;;;;6126289;23;20425;-80
2022/07/17 09:25:33;;;;;;;1.75;1.50;;;31.90;37.60;;;;;;6126409;23;20722;-83
2022/07/17 09:28:04;;;;;;;2.42;1.70;;;31.80;38.30;;;;;;6126415;23;20632;-82
2022/07/17 09:30:32;;;;;;;2.03;1.80;;;31.80;38.90;;;;;;6127338;23;20374;-82
2022/07/17 09:32:59;;;;;;;2.60;1.40;;;31.90;38.60;;;;;;6126831;23;20706;-81
2022/07/17 09:35:27;;;;;;;2.50;1.52;;;32.10;38.40;;;;;;6128866;23;20765;-85
2022/07/17 09:37:54;;;;;;;2.47;1.80;;;32.30;38.20;;;;;;6128217;23;20377;-85
2022/07/17 09:43:13;;;;;;;2.67;1.60;;;32.30;36.30;;;;;;6154104;23;20420;-84
2022/07/17 09:45:42;;;;;;;1.50;1.40;;;32.20;37.10;;;;;;6129075;23;20405;-81
2022/07/17 09:48:09;;;;;;;2.60;1.48;;;32.10;36.40;;;;;;6128087;23;20878;-81
2022/07/17 09:50:37;;;;;;;2.25;1.42;;;32.00;37.60;;;;;;6129425;23;20839;-81
2022/07/17 09:53:07;;;;;;;1.73;1.58;;;32.00;36.70;;;;;;6128119;23;20378;-82
2022/07/17 09:55:35;;;;;;;2.57;1.90;;;32.10;36.30;;;;;;6129272;23;20747;-82
2022/07/17 09:58:17;;;;;;;5.55;1.33;;;32.10;36.30;;;;;;6130656;23;20374;-82
2022/07/17 10:00:44;;;;;;;1.75;1.40;;;32.30;37.20;;;;;;6128616;23;20404;-81
2022/07/17 10:03:12;;;;;;;1.50;1.40;;;32.70;35.60;;;;;;6127933;23;20727;-82
2022/07/17 10:05:40;;;;;;;2.53;1.73;;;32.90;36.30;;;;;;6128820;23;20436;-81
2022/07/17 10:08:12;;;;;;;1.67;1.40;;;32.90;34.80;;;;;;6129376;23;20378;-82
2022/07/17 10:10:39;;;;;;;3.23;1.57;;;32.90;35.30;;;;;;6129052;23;20700;-83
2022/07/17 10:13:07;;;;;;;2.50;1.90;;;32.90;36.40;;;;;;6127852;23;20374;-82
2022/07/17 10:15:35;;;;;;;2.10;1.55;;;33.10;35.00;;;;;;6128653;23;20376;-82
2022/07/17 10:18:06;;;;;;;1.73;1.63;;;32.90;34.60;;;;;;6127856;23;20405;-85
2022/07/17 10:20:34;;;;;;;1.70;1.50;;;32.90;35.50;;;;;;6128979;23;20374;-81
2022/07/17 10:23:12;;;;;;;1.88;1.55;;;33.00;35.70;;;;;;6153311;23;20386;-81
2022/07/17 10:25:39;;;;;;;3.00;1.67;;;33.10;35.60;;;;;;6128180;23;20726;-83
2022/07/17 10:28:07;;;;;;;1.67;1.50;;;33.20;35.60;;;;;;6128036;23;20396;-82
2022/07/17 10:30:34;;;;;;;1.60;1.50;;;33.30;34.50;;;;;;6129053;23;20496;-82
2022/07/17 10:33:05;;;;;;;1.60;1.50;;;33.30;35.10;;;;;;6127488;23;20382;-83
2022/07/17 10:35:45;;;;;;;1.50;1.40;;;33.30;34.80;;;;;;6128323;23;20748;-85
2022/07/17 10:38:13;;;;;;;2.43;1.57;;;33.30;34.80;;;;;;6128086;23;20393;-81
2022/07/17 10:40:41;;;;;;;1.83;1.50;;;33.40;34.90;;;;;;6128190;23;20436;-82
2022/07/17 10:43:09;;;;;;;2.10;1.38;;;33.60;34.80;;;;;;6127679;23;20381;-81
2022/07/17 10:45:45;;;;;;;1.75;1.42;;;33.70;34.80;;;;;;6127982;23;20370;-83
2022/07/17 10:48:19;;;;;;;1.87;1.40;;;33.80;35.80;;;;;;6127665;23;20412;-82
2022/07/17 10:50:55;;;;;;;2.73;1.90;;;34.00;34.60;;;;;;6128517;23;20842;-82
2022/07/17 10:53:26;;;;;;;1.48;1.35;;;34.20;34.00;;;;;;6127798;23;20370;-82
2022/07/17 10:56:01;;;;;;;1.90;1.45;;;34.20;33.90;;;;;;6128741;23;20378;-83
2022/07/17 10:58:32;;;;;;;2.30;1.42;;;34.20;33.80;;;;;;6127714;23;20375;-81
2022/07/17 11:01:04;;;;;;;3.00;1.70;;;34.20;33.10;;;;;;6128682;23;20394;-84
2022/07/17 11:03:46;;;;;;;1.55;1.30;;;34.10;32.90;;;;;;6127569;23;20842;-83
2022/07/17 11:06:34;;;;;;;1.60;1.50;;;33.90;34.00;;;;;;6127572;23;20764;-81
2022/07/17 11:09:10;;;;;;;2.47;1.75;;;33.90;34.40;;;;;;6128117;23;20437;-85
2022/07/17 11:11:51;;;;;;;1.88;1.30;;;34.00;34.20;;;;;;6127587;23;20378;-80
2022/07/17 11:14:21;;;;;;;2.38;1.48;;;34.10;34.00;;;;;;6127245;23;20375;-82
2022/07/17 11:16:52;;;;;;;2.53;1.65;;;34.10;34.40;;;;;;6128227;23;20835;-85
2022/07/17 11:19:42;;;;;;;2.00;1.77;;;34.10;34.50;;;;;;6127288;23;20410;-81
2022/07/17 11:22:12;;;;;;;2.05;1.20;;;34.20;34.20;;;;;;6128027;23;20382;-81
2022/07/17 11:24:43;;;;;;;1.40;1.30;;;34.40;33.30;;;;;;6127381;23;20369;-82
2022/07/17 11:27:13;;;;;;;2.00;1.20;;;34.50;33.60;;;;;;6127813;23;20486;-82
2022/07/17 11:29:40;;;;;;;2.80;1.92;;;34.60;33.10;;;;;;6127774;23;20469;-82
2022/07/17 11:32:08;;;;;;;1.70;1.60;;;34.70;33.10;;;;;;6128140;23;20751;-81
2022/07/17 11:34:35;;;;;;;2.45;1.33;;;34.70;32.40;;;;;;6127504;23;20772;-85
2022/07/17 11:37:05;;;;;;;3.38;1.80;;;34.50;32.00;;;;;;6127915;23;20838;-81
2022/07/17 11:39:50;;;;;;;2.40;1.50;;;34.50;33.60;;;;;;6127024;23;20688;-81
2022/07/17 11:42:20;;;;;;;2.17;1.60;;;34.60;34.10;;;;;;6126793;23;20393;-81
2022/07/17 11:44:50;;;;;;;2.20;1.47;;;34.60;32.80;;;;;;6127994;23;20425;-85
2022/07/17 11:47:28;;;;;;;1.75;1.20;;;34.70;32.50;;;;;;6127372;23;20712;-81
2022/07/17 11:50:13;;;;;;;1.95;1.42;;;34.70;32.60;;;;;;6128065;23;20377;-83
2022/07/17 11:52:43;;;;;;;1.67;1.40;;;34.70;32.10;;;;;;6126947;23;20370;-82
2022/07/17 11:55:12;;;;;;;5.65;1.60;;;34.70;32.50;;;;;;6127743;23;20374;-81
2022/07/17 11:57:47;;;;;;;1.90;1.45;;;34.80;31.50;;;;;;6126804;23;20770;-85
2022/07/17 12:00:17;;;;;;;2.22;1.45;;;34.70;31.70;;;;;;6127880;23;20381;-82
2022/07/17 12:02:44;;;;;;;1.40;1.30;;;34.60;32.50;;;;;;6127018;23;20370;-85
2022/07/17 12:05:12;;;;;;;1.30;1.15;;;34.70;32.90;;;;;;6127956;23;20424;-83
2022/07/17 12:07:47;;;;;;;1.95;1.20;;;35.00;31.70;;;;;;6152143;23;20382;-81
2022/07/17 12:10:17;;;;;;;1.20;0.95;;;35.20;30.90;;;;;;6127464;23;20371;-81
2022/07/17 12:12:58;;;;;;;1.60;1.30;;;35.30;31.10;;;;;;6126313;23;20378;-81
2022/07/17 12:15:41;;;;;;;2.30;1.40;;;35.40;32.20;;;;;;6126577;23;20708;-82
2022/07/17 12:18:28;;;;;;;2.25;1.10;;;35.70;33.10;;;;;;6127915;23;20378;-82
2022/07/17 12:21:02;;;;;;;1.70;1.20;;;35.80;31.20;;;;;;6126833;23;20366;-83
2022/07/17 12:23:31;;;;;;;1.25;1.15;;;35.90;30.60;;;;;;6127655;23;20458;-81
2022/07/17 12:26:05;;;;;;;2.35;1.30;;;35.90;30.30;;;;;;6152142;23;20908;-82
2022/07/17 12:28:32;;;;;;;2.40;1.30;;;35.90;30.00;;;;;;6126438;23;20378;-81
2022/07/17 12:30:59;;;;;;;1.20;1.10;;;36.10;30.10;;;;;;6127312;23;20370;-81
2022/07/17 12:33:27;;;;;;;1.60;1.00;;;36.20;31.30;;;;;;6153001;23;20382;-81
2022/07/17 12:35:55;;;;;;;1.92;1.40;;;36.30;30.00;;;;;;6115275;23;20383;-82
2022/07/17 12:38:23;;;;;;;1.27;1.17;;;36.30;29.20;;;;;;6127314;23;20406;-82
2022/07/17 12:40:50;;;;;;;1.30;1.20;;;36.10;29.30;;;;;;6126367;23;20862;-84
2022/07/17 12:43:17;;;;;;;1.30;1.20;;;36.40;29.80;;;;;;6127384;23;20431;-81
2022/07/17 12:45:44;;;;;;;1.42;1.33;;;36.50;29.90;;;;;;6126812;23;20378;-81
2022/07/17 12:48:11;;;;;;;1.50;1.20;;;36.60;30.50;;;;;;6152929;23;20381;-81
2022/07/17 12:50:38;;;;;;;2.08;1.20;;;36.80;29.70;;;;;;6126437;23;20834;-86
2022/07/17 12:53:06;;;;;;;3.40;1.50;;;36.80;29.00;;;;;;6127261;23;20390;-82
2022/07/17 12:55:33;;;;;;;2.50;1.27;;;37.10;29.50;;;;;;6119931;23;20409;-81
2022/07/17 12:58:01;;;;;;;1.55;1.45;;;37.20;29.20;;;;;;6126550;23;20408;-85